Throop, New York
Current Conditions -  °F | °C
As of 3:54 AM on Thursday 27 Nov 2014 (Local Time) from KSYR Reporting Station
Light Snow Light Snow  
Wind Chill: 20°   Ceiling: 4100
Heat Index: 29°   Visibility: 6mi
Dew Point: 25°   Wind: 9mph
Humidity: 85%   Direction: 340°NNW
Pressure: 29.99"   Gusts: NA
Location:  42.9235°N, 76.5525°W
Report Text: KSYR 270854Z 34008KT 6SM -SN BR FEW014 FEW032 OVC041 M02/M04 A2999 RMK AO2 SLP159 P0000 60001 T10171039 50003
Loading
Personal Weather Stations






























Interactive Weather Map New forecast layout! Learn more

10-Day Weather Forecast

Advertisements
Track Severe Weather on mobile